sensor_id;sensor_type;location;lat;lon;timestamp;temperature;humidity
17948;DHT22;9099;47.958;11.366;2023-09-12T00:00:24;19.10;99.90
17948;DHT22;9099;47.958;11.366;2023-09-12T00:02:51;19.10;99.90
17948;DHT22;9099;47.958;11.366;2023-09-12T00:05:18;19.10;99.90
17948;DHT22;9099;47.958;11.366;2023-09-12T00:07:45;19.10;99.90
17948;DHT22;9099;47.958;11.366;2023-09-12T00:10:12;19.10;99.90
17948;DHT22;9099;47.958;11.366;2023-09-12T00:12:39;19.10;99.90
17948;DHT22;9099;47.958;11.366;2023-09-12T00:15:06;19.00;99.90
17948;DHT22;9099;47.958;11.366;2023-09-12T00:17:35;19.00;99.90
17948;DHT22;9099;47.958;11.366;2023-09-12T00:20:02;19.00;99.90
17948;DHT22;9099;47.958;11.366;2023-09-12T00:22:31;19.00;99.90
17948;DHT22;9099;47.958;11.366;2023-09-12T00:24:58;19.00;99.90
17948;DHT22;9099;47.958;11.366;2023-09-12T00:27:25;18.90;99.90
17948;DHT22;9099;47.958;11.366;2023-09-12T00:29:52;18.90;99.90
17948;DHT22;9099;47.958;11.366;2023-09-12T00:32:19;18.90;99.90
17948;DHT22;9099;47.958;11.366;2023-09-12T00:34:47;18.80;99.90
17948;DHT22;9099;47.958;11.366;2023-09-12T00:37:14;18.80;99.90
17948;DHT22;9099;47.958;11.366;2023-09-12T00:39:41;18.80;99.90
17948;DHT22;9099;47.958;11.366;2023-09-12T00:42:08;18.70;99.90
17948;DHT22;9099;47.958;11.366;2023-09-12T00:44:34;18.60;99.90
17948;DHT22;9099;47.958;11.366;2023-09-12T00:47:02;18.50;99.90
17948;DHT22;9099;47.958;11.366;2023-09-12T00:49:30;18.50;99.90
17948;DHT22;9099;47.958;11.366;2023-09-12T00:51:59;18.40;99.90
17948;DHT22;9099;47.958;11.366;2023-09-12T00:54:27;18.30;99.90
17948;DHT22;9099;47.958;11.366;2023-09-12T00:56:54;18.30;99.90
17948;DHT22;9099;47.958;11.366;2023-09-12T00:59:21;18.20;99.90
17948;DHT22;9099;47.958;11.366;2023-09-12T01:01:48;18.30;99.90
17948;DHT22;9099;47.958;11.366;2023-09-12T01:04:17;18.20;99.90
17948;DHT22;9099;47.958;11.366;2023-09-12T01:06:43;18.20;99.90
17948;DHT22;9099;47.958;11.366;2023-09-12T01:09:12;18.20;99.90
17948;DHT22;9099;47.958;11.366;2023-09-12T01:11:40;18.20;99.90
17948;DHT22;9099;47.958;11.366;2023-09-12T01:14:07;18.20;99.90
17948;DHT22;9099;47.958;11.366;2023-09-12T01:16:34;18.20;99.90
17948;DHT22;9099;47.958;11.366;2023-09-12T01:19:01;18.20;99.90
17948;DHT22;9099;47.958;11.366;2023-09-12T01:21:39;18.20;99.90
17948;DHT22;9099;47.958;11.366;2023-09-12T01:24:31;18.20;99.90
17948;DHT22;9099;47.958;11.366;2023-09-12T01:27:21;18.20;99.90
17948;DHT22;9099;47.958;11.366;2023-09-12T01:29:51;18.20;99.90
17948;DHT22;9099;47.958;11.366;2023-09-12T01:32:20;18.20;99.90
17948;DHT22;9099;47.958;11.366;2023-09-12T01:34:47;18.20;99.90
17948;DHT22;9099;47.958;11.366;2023-09-12T01:37:14;18.20;99.90
17948;DHT22;9099;47.958;11.366;2023-09-12T01:39:41;18.20;99.90
17948;DHT22;9099;47.958;11.366;2023-09-12T01:42:11;18.20;99.90
17948;DHT22;9099;47.958;11.366;2023-09-12T01:44:43;18.30;99.90
17948;DHT22;9099;47.958;11.366;2023-09-12T01:47:11;18.30;99.90
17948;DHT22;9099;47.958;11.366;2023-09-12T01:49:41;18.30;99.90
17948;DHT22;9099;47.958;11.366;2023-09-12T01:52:09;18.30;99.90
17948;DHT22;9099;47.958;11.366;2023-09-12T01:54:37;18.20;99.90
17948;DHT22;9099;47.958;11.366;2023-09-12T01:57:05;18.20;99.90
17948;DHT22;9099;47.958;11.366;2023-09-12T01:59:32;18.20;99.90
17948;DHT22;9099;47.958;11.366;2023-09-12T02:02:00;18.10;99.90
17948;DHT22;9099;47.958;11.366;2023-09-12T02:04:27;18.10;99.90
17948;DHT22;9099;47.958;11.366;2023-09-12T02:06:54;18.00;99.90
17948;DHT22;9099;47.958;11.366;2023-09-12T02:09:21;17.80;99.90
17948;DHT22;9099;47.958;11.366;2023-09-12T02:11:49;17.70;99.90
17948;DHT22;9099;47.958;11.366;2023-09-12T02:14:16;17.60;99.90
17948;DHT22;9099;47.958;11.366;2023-09-12T02:16:43;17.50;99.90
17948;DHT22;9099;47.958;11.366;2023-09-12T02:19:12;17.50;99.90
17948;DHT22;9099;47.958;11.366;2023-09-12T02:21:38;17.40;99.90
17948;DHT22;9099;47.958;11.366;2023-09-12T02:24:06;17.50;99.90
17948;DHT22;9099;47.958;11.366;2023-09-12T02:26:33;17.50;99.90
17948;DHT22;9099;47.958;11.366;2023-09-12T02:29:02;17.50;99.90
17948;DHT22;9099;47.958;11.366;2023-09-12T02:31:29;17.50;99.90
17948;DHT22;9099;47.958;11.366;2023-09-12T02:33:56;17.40;99.90
17948;DHT22;9099;47.958;11.366;2023-09-12T02:36:24;17.40;99.90
17948;DHT22;9099;47.958;11.366;2023-09-12T02:38:51;17.50;99.90
17948;DHT22;9099;47.958;11.366;2023-09-12T02:41:18;17.50;99.90
17948;DHT22;9099;47.958;11.366;2023-09-12T02:43:45;17.50;99.90
17948;DHT22;9099;47.958;11.366;2023-09-12T02:46:11;17.40;99.90
17948;DHT22;9099;47.958;11.366;2023-09-12T02:48:38;17.40;99.90
17948;DHT22;9099;47.958;11.366;2023-09-12T02:51:05;17.40;99.90
17948;DHT22;9099;47.958;11.366;2023-09-12T02:53:33;17.40;99.90
17948;DHT22;9099;47.958;11.366;2023-09-12T02:56:00;17.30;99.90
17948;DHT22;9099;47.958;11.366;2023-09-12T02:58:27;17.30;99.90
17948;DHT22;9099;47.958;11.366;2023-09-12T03:00:54;17.40;99.90
17948;DHT22;9099;47.958;11.366;2023-09-12T03:03:21;17.40;99.90
17948;DHT22;9099;47.958;11.366;2023-09-12T03:05:48;17.40;99.90
17948;DHT22;9099;47.958;11.366;2023-09-12T03:08:23;17.50;99.90
17948;DHT22;9099;47.958;11.366;2023-09-12T03:10:54;17.50;99.90
17948;DHT22;9099;47.958;11.366;2023-09-12T03:13:23;17.40;99.90
17948;DHT22;9099;47.958;11.366;2023-09-12T03:15:50;17.40;99.90
17948;DHT22;9099;47.958;11.366;2023-09-12T03:18:16;17.30;99.90
17948;DHT22;9099;47.958;11.366;2023-09-12T03:20:43;17.40;99.90
17948;DHT22;9099;47.958;11.366;2023-09-12T03:23:10;17.40;99.90
17948;DHT22;9099;47.958;11.366;2023-09-12T03:25:38;17.40;99.90
17948;DHT22;9099;47.958;11.366;2023-09-12T03:28:07;17.40;99.90
17948;DHT22;9099;47.958;11.366;2023-09-12T03:30:35;17.40;99.90
17948;DHT22;9099;47.958;11.366;2023-09-12T03:33:02;17.40;99.90
17948;DHT22;9099;47.958;11.366;2023-09-12T03:35:30;17.40;99.90
17948;DHT22;9099;47.958;11.366;2023-09-12T03:37:57;17.40;99.90
17948;DHT22;9099;47.958;11.366;2023-09-12T03:40:24;17.40;99.90
17948;DHT22;9099;47.958;11.366;2023-09-12T03:42:51;17.40;99.90
17948;DHT22;9099;47.958;11.366;2023-09-12T03:45:19;17.40;99.90
17948;DHT22;9099;47.958;11.366;2023-09-12T03:47:46;17.40;99.90
17948;DHT22;9099;47.958;11.366;2023-09-12T03:50:13;17.40;99.90
17948;DHT22;9099;47.958;11.366;2023-09-12T03:52:40;17.40;99.90
17948;DHT22;9099;47.958;11.366;2023-09-12T03:55:08;17.40;99.90
17948;DHT22;9099;47.958;11.366;2023-09-12T03:57:35;17.40;99.90
17948;DHT22;9099;47.958;11.366;2023-09-12T04:00:02;17.40;99.90
17948;DHT22;9099;47.958;11.366;2023-09-12T04:02:32;17.40;99.90
17948;DHT22;9099;47.958;11.366;2023-09-12T04:04:59;17.40;99.90
17948;DHT22;9099;47.958;11.366;2023-09-12T04:07:26;17.40;99.90
17948;DHT22;9099;47.958;11.366;2023-09-12T04:09:53;17.40;99.90
17948;DHT22;9099;47.958;11.366;2023-09-12T04:12:20;17.40;99.90
17948;DHT22;9099;47.958;11.366;2023-09-12T04:14:49;17.40;99.90
17948;DHT22;9099;47.958;11.366;2023-09-12T04:17:17;17.40;99.90
17948;DHT22;9099;47.958;11.366;2023-09-12T04:19:45;17.40;99.90
17948;DHT22;9099;47.958;11.366;2023-09-12T04:22:13;17.40;99.90
17948;DHT22;9099;47.958;11.366;2023-09-12T04:24:40;17.40;99.90
17948;DHT22;9099;47.958;11.366;2023-09-12T04:27:07;17.40;99.90
17948;DHT22;9099;47.958;11.366;2023-09-12T04:29:34;17.30;99.90
17948;DHT22;9099;47.958;11.366;2023-09-12T04:32:02;17.30;99.90
17948;DHT22;9099;47.958;11.366;2023-09-12T04:34:29;17.20;99.90
17948;DHT22;9099;47.958;11.366;2023-09-12T04:36:57;17.20;99.90
17948;DHT22;9099;47.958;11.366;2023-09-12T04:39:24;17.20;99.90
17948;DHT22;9099;47.958;11.366;2023-09-12T04:41:51;17.20;99.90
17948;DHT22;9099;47.958;11.366;2023-09-12T04:44:18;17.20;99.90
17948;DHT22;9099;47.958;11.366;2023-09-12T04:46:45;17.20;99.90
17948;DHT22;9099;47.958;11.366;2023-09-12T04:49:12;17.20;99.90
17948;DHT22;9099;47.958;11.366;2023-09-12T04:51:39;17.20;99.90
17948;DHT22;9099;47.958;11.366;2023-09-12T04:54:09;17.20;99.90
17948;DHT22;9099;47.958;11.366;2023-09-12T04:56:36;17.30;99.90
17948;DHT22;9099;47.958;11.366;2023-09-12T04:59:03;17.30;99.90
17948;DHT22;9099;47.958;11.366;2023-09-12T05:01:32;17.30;99.90
17948;DHT22;9099;47.958;11.366;2023-09-12T05:03:59;17.30;99.90
17948;DHT22;9099;47.958;11.366;2023-09-12T05:06:26;17.20;99.90
17948;DHT22;9099;47.958;11.366;2023-09-12T05:08:53;17.20;99.90
17948;DHT22;9099;47.958;11.366;2023-09-12T05:11:23;17.10;99.90
17948;DHT22;9099;47.958;11.366;2023-09-12T05:13:50;17.10;99.90
17948;DHT22;9099;47.958;11.366;2023-09-12T05:16:17;17.20;99.90
17948;DHT22;9099;47.958;11.366;2023-09-12T05:18:45;17.20;99.90
17948;DHT22;9099;47.958;11.366;2023-09-12T05:21:14;17.20;99.90
17948;DHT22;9099;47.958;11.366;2023-09-12T05:23:41;17.30;99.90
17948;DHT22;9099;47.958;11.366;2023-09-12T05:26:08;17.40;99.90
17948;DHT22;9099;47.958;11.366;2023-09-12T05:28:37;17.60;99.90
17948;DHT22;9099;47.958;11.366;2023-09-12T05:31:04;18.00;99.90
17948;DHT22;9099;47.958;11.366;2023-09-12T05:33:31;18.40;99.90
17948;DHT22;9099;47.958;11.366;2023-09-12T05:35:58;18.70;99.90
17948;DHT22;9099;47.958;11.366;2023-09-12T05:38:24;19.10;99.90
17948;DHT22;9099;47.958;11.366;2023-09-12T05:40:51;19.60;99.90
17948;DHT22;9099;47.958;11.366;2023-09-12T05:43:18;20.10;99.90
17948;DHT22;9099;47.958;11.366;2023-09-12T05:45:47;20.50;99.90
17948;DHT22;9099;47.958;11.366;2023-09-12T05:48:13;21.00;99.90
17948;DHT22;9099;47.958;11.366;2023-09-12T05:50:40;21.60;99.90
17948;DHT22;9099;47.958;11.366;2023-09-12T05:53:08;22.10;99.90
17948;DHT22;9099;47.958;11.366;2023-09-12T05:55:35;22.60;99.90
17948;DHT22;9099;47.958;11.366;2023-09-12T05:58:02;23.20;99.90
17948;DHT22;9099;47.958;11.366;2023-09-12T06:00:31;23.80;99.90
17948;DHT22;9099;47.958;11.366;2023-09-12T06:02:59;24.30;99.90
17948;DHT22;9099;47.958;11.366;2023-09-12T06:05:26;24.70;99.90
17948;DHT22;9099;47.958;11.366;2023-09-12T06:07:53;25.10;99.90
17948;DHT22;9099;47.958;11.366;2023-09-12T06:10:20;25.30;99.90
17948;DHT22;9099;47.958;11.366;2023-09-12T06:12:47;25.40;99.90
17948;DHT22;9099;47.958;11.366;2023-09-12T06:15:15;25.60;99.90
17948;DHT22;9099;47.958;11.366;2023-09-12T06:17:42;25.90;99.90
17948;DHT22;9099;47.958;11.366;2023-09-12T06:20:11;26.30;99.90
17948;DHT22;9099;47.958;11.366;2023-09-12T06:22:38;26.60;99.90
17948;DHT22;9099;47.958;11.366;2023-09-12T06:25:06;26.90;99.90
17948;DHT22;9099;47.958;11.366;2023-09-12T06:27:32;27.30;99.90
17948;DHT22;9099;47.958;11.366;2023-09-12T06:29:59;27.30;99.90
17948;DHT22;9099;47.958;11.366;2023-09-12T06:32:26;27.30;99.90
17948;DHT22;9099;47.958;11.366;2023-09-12T06:34:53;27.50;99.90
17948;DHT22;9099;47.958;11.366;2023-09-12T06:37:21;27.90;99.90
17948;DHT22;9099;47.958;11.366;2023-09-12T06:39:49;28.30;99.90
17948;DHT22;9099;47.958;11.366;2023-09-12T06:42:17;28.70;99.90
17948;DHT22;9099;47.958;11.366;2023-09-12T06:44:44;28.90;99.90
17948;DHT22;9099;47.958;11.366;2023-09-12T06:47:11;29.00;99.90
17948;DHT22;9099;47.958;11.366;2023-09-12T06:49:38;29.10;99.90
17948;DHT22;9099;47.958;11.366;2023-09-12T06:52:06;29.60;99.90
17948;DHT22;9099;47.958;11.366;2023-09-12T06:54:35;29.90;99.90
17948;DHT22;9099;47.958;11.366;2023-09-12T06:57:02;30.00;99.90
17948;DHT22;9099;47.958;11.366;2023-09-12T06:59:29;30.00;99.90
17948;DHT22;9099;47.958;11.366;2023-09-12T07:01:56;29.90;99.90
17948;DHT22;9099;47.958;11.366;2023-09-12T07:04:23;29.90;99.90
17948;DHT22;9099;47.958;11.366;2023-09-12T07:06:51;29.80;99.90
17948;DHT22;9099;47.958;11.366;2023-09-12T07:09:17;29.60;99.90
17948;DHT22;9099;47.958;11.366;2023-09-12T07:11:47;29.70;99.90
17948;DHT22;9099;47.958;11.366;2023-09-12T07:14:15;29.80;99.90
17948;DHT22;9099;47.958;11.366;2023-09-12T07:16:43;30.30;99.90
17948;DHT22;9099;47.958;11.366;2023-09-12T07:19:10;30.50;99.90
17948;DHT22;9099;47.958;11.366;2023-09-12T07:21:43;30.60;99.90
17948;DHT22;9099;47.958;11.366;2023-09-12T07:24:11;31.40;99.90
17948;DHT22;9099;47.958;11.366;2023-09-12T07:26:38;32.20;99.90
17948;DHT22;9099;47.958;11.366;2023-09-12T07:29:13;32.40;99.90
17948;DHT22;9099;47.958;11.366;2023-09-12T07:31:40;32.80;99.90
17948;DHT22;9099;47.958;11.366;2023-09-12T07:34:12;33.70;99.90
17948;DHT22;9099;47.958;11.366;2023-09-12T07:36:40;34.10;99.90
17948;DHT22;9099;47.958;11.366;2023-09-12T07:39:10;34.30;99.90
17948;DHT22;9099;47.958;11.366;2023-09-12T07:41:40;34.20;99.90
17948;DHT22;9099;47.958;11.366;2023-09-12T07:44:09;34.20;99.90
17948;DHT22;9099;47.958;11.366;2023-09-12T07:46:37;34.50;99.90
17948;DHT22;9099;47.958;11.366;2023-09-12T07:49:04;34.70;99.90
17948;DHT22;9099;47.958;11.366;2023-09-12T07:51:31;35.20;99.90
17948;DHT22;9099;47.958;11.366;2023-09-12T07:53:58;35.80;99.90
17948;DHT22;9099;47.958;11.366;2023-09-12T07:56:24;36.40;99.90
17948;DHT22;9099;47.958;11.366;2023-09-12T07:58:51;36.50;99.90
17948;DHT22;9099;47.958;11.366;2023-09-12T08:01:20;37.20;99.90
17948;DHT22;9099;47.958;11.366;2023-09-12T08:03:47;37.70;99.90
17948;DHT22;9099;47.958;11.366;2023-09-12T08:06:17;37.10;99.90
17948;DHT22;9099;47.958;11.366;2023-09-12T08:08:44;37.10;99.90
17948;DHT22;9099;47.958;11.366;2023-09-12T08:11:12;37.70;99.00
17948;DHT22;9099;47.958;11.366;2023-09-12T08:13:39;37.80;98.90
17948;DHT22;9099;47.958;11.366;2023-09-12T08:16:06;37.90;98.60
17948;DHT22;9099;47.958;11.366;2023-09-12T08:18:34;38.60;97.20
17948;DHT22;9099;47.958;11.366;2023-09-12T08:21:01;38.80;97.10
17948;DHT22;9099;47.958;11.366;2023-09-12T08:23:29;39.20;95.80
17948;DHT22;9099;47.958;11.366;2023-09-12T08:25:56;39.40;95.90
17948;DHT22;9099;47.958;11.366;2023-09-12T08:28:23;39.20;95.30
17948;DHT22;9099;47.958;11.366;2023-09-12T08:30:51;39.20;95.30
17948;DHT22;9099;47.958;11.366;2023-09-12T08:33:18;39.10;95.40
17948;DHT22;9099;47.958;11.366;2023-09-12T08:35:49;39.20;96.30
17948;DHT22;9099;47.958;11.366;2023-09-12T08:38:16;39.30;96.70
17948;DHT22;9099;47.958;11.366;2023-09-12T08:40:48;39.40;94.70
17948;DHT22;9099;47.958;11.366;2023-09-12T08:43:15;38.80;95.20
17948;DHT22;9099;47.958;11.366;2023-09-12T08:45:43;38.70;95.40
17948;DHT22;9099;47.958;11.366;2023-09-12T08:48:11;38.60;94.50
17948;DHT22;9099;47.958;11.366;2023-09-12T08:50:39;38.50;94.30
17948;DHT22;9099;47.958;11.366;2023-09-12T08:53:08;38.40;94.40
17948;DHT22;9099;47.958;11.366;2023-09-12T08:55:35;38.60;94.00
17948;DHT22;9099;47.958;11.366;2023-09-12T08:58:03;38.80;93.90
17948;DHT22;9099;47.958;11.366;2023-09-12T09:00:31;38.80;94.20
17948;DHT22;9099;47.958;11.366;2023-09-12T09:03:01;38.80;94.00
17948;DHT22;9099;47.958;11.366;2023-09-12T09:05:32;38.60;93.60
17948;DHT22;9099;47.958;11.366;2023-09-12T09:08:00;38.50;93.20
17948;DHT22;9099;47.958;11.366;2023-09-12T09:10:35;38.30;93.90
17948;DHT22;9099;47.958;11.366;2023-09-12T09:13:06;38.80;93.40
17948;DHT22;9099;47.958;11.366;2023-09-12T09:15:35;39.50;93.00
17948;DHT22;9099;47.958;11.366;2023-09-12T09:18:04;39.50;92.20
17948;DHT22;9099;47.958;11.366;2023-09-12T09:20:33;39.70;92.80
17948;DHT22;9099;47.958;11.366;2023-09-12T09:23:06;39.70;92.20
17948;DHT22;9099;47.958;11.366;2023-09-12T09:25:40;39.60;92.40
17948;DHT22;9099;47.958;11.366;2023-09-12T09:28:17;39.80;92.00
17948;DHT22;9099;47.958;11.366;2023-09-12T09:30:48;39.40;92.60
17948;DHT22;9099;47.958;11.366;2023-09-12T09:33:16;38.40;93.20
17948;DHT22;9099;47.958;11.366;2023-09-12T09:35:47;38.10;93.00
17948;DHT22;9099;47.958;11.366;2023-09-12T09:38:14;38.10;92.80
17948;DHT22;9099;47.958;11.366;2023-09-12T09:40:46;37.80;93.40
17948;DHT22;9099;47.958;11.366;2023-09-12T09:43:19;37.70;93.10
17948;DHT22;9099;47.958;11.366;2023-09-12T09:45:47;37.60;94.00
17948;DHT22;9099;47.958;11.366;2023-09-12T09:48:19;37.10;93.60
17948;DHT22;9099;47.958;11.366;2023-09-12T09:50:48;36.90;94.00
17948;DHT22;9099;47.958;11.366;2023-09-12T09:53:21;36.80;93.90
17948;DHT22;9099;47.958;11.366;2023-09-12T09:56:07;36.70;94.30
17948;DHT22;9099;47.958;11.366;2023-09-12T09:58:35;36.60;94.60
17948;DHT22;9099;47.958;11.366;2023-09-12T10:01:07;36.50;94.30
17948;DHT22;9099;47.958;11.366;2023-09-12T10:03:36;36.20;95.20
17948;DHT22;9099;47.958;11.366;2023-09-12T10:06:06;36.10;94.70
17948;DHT22;9099;47.958;11.366;2023-09-12T10:08:35;36.10;95.20
17948;DHT22;9099;47.958;11.366;2023-09-12T10:11:06;35.90;95.20
17948;DHT22;9099;47.958;11.366;2023-09-12T10:13:35;35.80;95.50
17948;DHT22;9099;47.958;11.366;2023-09-12T10:16:06;35.80;95.50
17948;DHT22;9099;47.958;11.366;2023-09-12T10:18:38;36.00;95.80
17948;DHT22;9099;47.958;11.366;2023-09-12T10:21:10;36.20;95.90
17948;DHT22;9099;47.958;11.366;2023-09-12T10:23:44;36.00;95.80
17948;DHT22;9099;47.958;11.366;2023-09-12T10:26:13;36.00;95.70
17948;DHT22;9099;47.958;11.366;2023-09-12T10:28:44;36.00;95.40
17948;DHT22;9099;47.958;11.366;2023-09-12T10:31:15;35.90;96.40
17948;DHT22;9099;47.958;11.366;2023-09-12T10:33:43;36.10;95.80
17948;DHT22;9099;47.958;11.366;2023-09-12T10:36:11;36.20;97.10
17948;DHT22;9099;47.958;11.366;2023-09-12T10:38:42;36.20;95.60
17948;DHT22;9099;47.958;11.366;2023-09-12T10:41:16;36.30;95.30
17948;DHT22;9099;47.958;11.366;2023-09-12T10:43:44;36.00;95.10
17948;DHT22;9099;47.958;11.366;2023-09-12T10:46:17;35.50;96.80
17948;DHT22;9099;47.958;11.366;2023-09-12T10:48:47;35.60;98.50
17948;DHT22;9099;47.958;11.366;2023-09-12T10:51:16;35.50;96.90
17948;DHT22;9099;47.958;11.366;2023-09-12T10:53:49;35.50;97.00
17948;DHT22;9099;47.958;11.366;2023-09-12T10:56:20;35.60;97.10
17948;DHT22;9099;47.958;11.366;2023-09-12T10:59:13;35.50;97.20
17948;DHT22;9099;47.958;11.366;2023-09-12T11:01:44;34.90;97.70
17948;DHT22;9099;47.958;11.366;2023-09-12T11:04:31;34.70;97.30
17948;DHT22;9099;47.958;11.366;2023-09-12T11:07:00;33.80;98.60
17948;DHT22;9099;47.958;11.366;2023-09-12T11:09:29;33.30;99.60
17948;DHT22;9099;47.958;11.366;2023-09-12T11:12:01;33.40;99.10
17948;DHT22;9099;47.958;11.366;2023-09-12T11:14:29;33.50;98.90
17948;DHT22;9099;47.958;11.366;2023-09-12T11:17:21;33.60;99.90
17948;DHT22;9099;47.958;11.366;2023-09-12T11:20:02;33.80;99.60
17948;DHT22;9099;47.958;11.366;2023-09-12T11:22:36;33.30;99.30
17948;DHT22;9099;47.958;11.366;2023-09-12T11:25:05;33.00;99.10
17948;DHT22;9099;47.958;11.366;2023-09-12T11:28:03;33.10;99.90
17948;DHT22;9099;47.958;11.366;2023-09-12T11:30:32;33.20;99.20
17948;DHT22;9099;47.958;11.366;2023-09-12T11:33:05;33.20;99.70
17948;DHT22;9099;47.958;11.366;2023-09-12T11:35:39;33.60;99.50
17948;DHT22;9099;47.958;11.366;2023-09-12T11:38:10;33.60;99.80
17948;DHT22;9099;47.958;11.366;2023-09-12T11:40:44;33.90;99.20
17948;DHT22;9099;47.958;11.366;2023-09-12T11:43:25;33.90;99.50
17948;DHT22;9099;47.958;11.366;2023-09-12T11:45:56;33.70;98.90
17948;DHT22;9099;47.958;11.366;2023-09-12T11:48:23;33.70;99.70
17948;DHT22;9099;47.958;11.366;2023-09-12T11:50:52;34.30;99.90
17948;DHT22;9099;47.958;11.366;2023-09-12T11:53:23;34.80;99.90
17948;DHT22;9099;47.958;11.366;2023-09-12T11:55:54;34.80;98.10
17948;DHT22;9099;47.958;11.366;2023-09-12T11:58:25;34.50;97.60
17948;DHT22;9099;47.958;11.366;2023-09-12T12:00:54;34.20;98.20
17948;DHT22;9099;47.958;11.366;2023-09-12T12:03:25;33.90;97.50
17948;DHT22;9099;47.958;11.366;2023-09-12T12:05:55;33.70;98.70
17948;DHT22;9099;47.958;11.366;2023-09-12T12:08:31;33.50;99.90
17948;DHT22;9099;47.958;11.366;2023-09-12T12:10:58;33.80;98.90
17948;DHT22;9099;47.958;11.366;2023-09-12T12:13:32;34.20;99.90
17948;DHT22;9099;47.958;11.366;2023-09-12T12:16:14;34.30;99.20
17948;DHT22;9099;47.958;11.366;2023-09-12T12:18:45;34.10;96.80
17948;DHT22;9099;47.958;11.366;2023-09-12T12:21:16;34.00;96.40
17948;DHT22;9099;47.958;11.366;2023-09-12T12:23:46;34.10;97.50
17948;DHT22;9099;47.958;11.366;2023-09-12T12:26:13;34.60;99.40
17948;DHT22;9099;47.958;11.366;2023-09-12T12:28:45;34.60;98.50
17948;DHT22;9099;47.958;11.366;2023-09-12T12:31:14;34.60;99.30
17948;DHT22;9099;47.958;11.366;2023-09-12T12:33:41;34.90;98.10
17948;DHT22;9099;47.958;11.366;2023-09-12T12:36:16;35.20;96.10
17948;DHT22;9099;47.958;11.366;2023-09-12T12:38:46;35.40;96.80
17948;DHT22;9099;47.958;11.366;2023-09-12T12:41:15;35.70;95.40
17948;DHT22;9099;47.958;11.366;2023-09-12T12:43:52;35.60;96.60
17948;DHT22;9099;47.958;11.366;2023-09-12T12:46:22;35.50;97.70
17948;DHT22;9099;47.958;11.366;2023-09-12T12:48:49;35.60;96.00
17948;DHT22;9099;47.958;11.366;2023-09-12T12:51:22;35.50;96.90
17948;DHT22;9099;47.958;11.366;2023-09-12T12:53:52;35.80;95.90
17948;DHT22;9099;47.958;11.366;2023-09-12T12:56:20;36.10;96.80
17948;DHT22;9099;47.958;11.366;2023-09-12T12:58:54;36.00;97.10
17948;DHT22;9099;47.958;11.366;2023-09-12T13:01:27;35.90;96.80
17948;DHT22;9099;47.958;11.366;2023-09-12T13:03:55;36.10;97.50
17948;DHT22;9099;47.958;11.366;2023-09-12T13:06:25;36.60;96.20
17948;DHT22;9099;47.958;11.366;2023-09-12T13:08:55;36.70;95.50
17948;DHT22;9099;47.958;11.366;2023-09-12T13:11:23;36.80;96.50
17948;DHT22;9099;47.958;11.366;2023-09-12T13:13:52;36.60;95.50
17948;DHT22;9099;47.958;11.366;2023-09-12T13:16:19;36.60;94.30
17948;DHT22;9099;47.958;11.366;2023-09-12T13:18:45;36.70;94.30
17948;DHT22;9099;47.958;11.366;2023-09-12T13:21:12;36.70;95.30
17948;DHT22;9099;47.958;11.366;2023-09-12T13:23:39;36.60;94.80
17948;DHT22;9099;47.958;11.366;2023-09-12T13:26:07;36.60;93.90
17948;DHT22;9099;47.958;11.366;2023-09-12T13:28:34;36.30;93.70
17948;DHT22;9099;47.958;11.366;2023-09-12T13:31:03;36.20;94.40
17948;DHT22;9099;47.958;11.366;2023-09-12T13:33:30;36.10;95.80
17948;DHT22;9099;47.958;11.366;2023-09-12T13:35:57;36.30;94.50
17948;DHT22;9099;47.958;11.366;2023-09-12T13:38:23;36.20;92.10
17948;DHT22;9099;47.958;11.366;2023-09-12T13:40:50;35.90;94.50
17948;DHT22;9099;47.958;11.366;2023-09-12T13:43:17;36.00;92.70
17948;DHT22;9099;47.958;11.366;2023-09-12T13:45:45;35.90;94.40
17948;DHT22;9099;47.958;11.366;2023-09-12T13:48:13;35.90;94.00
17948;DHT22;9099;47.958;11.366;2023-09-12T13:50:40;35.90;92.50
17948;DHT22;9099;47.958;11.366;2023-09-12T13:53:08;35.70;93.20
17948;DHT22;9099;47.958;11.366;2023-09-12T13:55:36;35.60;94.30
17948;DHT22;9099;47.958;11.366;2023-09-12T13:58:04;35.60;93.80
17948;DHT22;9099;47.958;11.366;2023-09-12T14:00:31;35.40;94.40
17948;DHT22;9099;47.958;11.366;2023-09-12T14:02:58;35.80;95.00
17948;DHT22;9099;47.958;11.366;2023-09-12T14:05:27;36.00;94.10
17948;DHT22;9099;47.958;11.366;2023-09-12T14:07:53;36.10;94.70
17948;DHT22;9099;47.958;11.366;2023-09-12T14:10:20;36.20;94.60
17948;DHT22;9099;47.958;11.366;2023-09-12T14:12:47;36.40;94.80
17948;DHT22;9099;47.958;11.366;2023-09-12T14:15:15;36.50;94.70
17948;DHT22;9099;47.958;11.366;2023-09-12T14:17:42;36.10;94.20
17948;DHT22;9099;47.958;11.366;2023-09-12T14:20:09;36.20;94.20
17948;DHT22;9099;47.958;11.366;2023-09-12T14:22:42;36.40;94.10
17948;DHT22;9099;47.958;11.366;2023-09-12T14:25:09;36.50;93.70
17948;DHT22;9099;47.958;11.366;2023-09-12T14:27:41;36.40;93.30
17948;DHT22;9099;47.958;11.366;2023-09-12T14:30:09;36.30;93.50
17948;DHT22;9099;47.958;11.366;2023-09-12T14:32:36;36.40;93.80
17948;DHT22;9099;47.958;11.366;2023-09-12T14:35:03;36.30;94.00
17948;DHT22;9099;47.958;11.366;2023-09-12T14:37:31;36.20;93.00
17948;DHT22;9099;47.958;11.366;2023-09-12T14:40:02;36.20;92.60
17948;DHT22;9099;47.958;11.366;2023-09-12T14:42:30;36.10;92.00
17948;DHT22;9099;47.958;11.366;2023-09-12T14:44:57;35.70;92.60
17948;DHT22;9099;47.958;11.366;2023-09-12T14:47:24;35.40;94.50
17948;DHT22;9099;47.958;11.366;2023-09-12T14:49:53;35.40;94.60
17948;DHT22;9099;47.958;11.366;2023-09-12T14:52:20;35.50;93.80
17948;DHT22;9099;47.958;11.366;2023-09-12T14:54:47;35.50;92.10
17948;DHT22;9099;47.958;11.366;2023-09-12T14:57:15;35.50;93.30
17948;DHT22;9099;47.958;11.366;2023-09-12T14:59:42;35.50;92.50
17948;DHT22;9099;47.958;11.366;2023-09-12T15:02:09;35.40;93.20
17948;DHT22;9099;47.958;11.366;2023-09-12T15:04:35;35.10;91.30
17948;DHT22;9099;47.958;11.366;2023-09-12T15:07:02;35.10;92.90
17948;DHT22;9099;47.958;11.366;2023-09-12T15:09:30;35.20;94.10
17948;DHT22;9099;47.958;11.366;2023-09-12T15:11:56;35.20;94.10
17948;DHT22;9099;47.958;11.366;2023-09-12T15:14:25;35.00;92.00
17948;DHT22;9099;47.958;11.366;2023-09-12T15:16:51;35.00;93.70
17948;DHT22;9099;47.958;11.366;2023-09-12T15:19:19;34.80;94.00
17948;DHT22;9099;47.958;11.366;2023-09-12T15:21:46;34.50;93.60
17948;DHT22;9099;47.958;11.366;2023-09-12T15:24:12;34.20;93.40
17948;DHT22;9099;47.958;11.366;2023-09-12T15:26:39;34.00;93.90
17948;DHT22;9099;47.958;11.366;2023-09-12T15:29:06;33.80;93.90
17948;DHT22;9099;47.958;11.366;2023-09-12T15:31:35;33.70;93.70
17948;DHT22;9099;47.958;11.366;2023-09-12T15:34:02;33.50;93.90
17948;DHT22;9099;47.958;11.366;2023-09-12T15:36:35;33.30;94.80
17948;DHT22;9099;47.958;11.366;2023-09-12T15:39:02;33.10;95.00